This is the latest recevied weather packets stored in our database for station/object 9W2CHF-3. If no packets are shown the sender has not sent any weather packets the latest 10 day(s).
| Time | Temp. | Humidity | Pressure | Rain* | Wind** | Luminosity | Snow |
|---|---|---|---|---|---|---|---|
| 1777974099 | 35° C | 66% | 1007.2 hPa | - | - | - | - |
| 1777972897 | 35° C | 62% | 1007 hPa | - | - | - | - |
| 1777971693 | 37.78° C | 51% | 1007 hPa | - | - | - | - |
| 1777969294 | 40° C | 48% | 1007.1 hPa | - | - | - | - |
| 1777968093 | 41.11° C | 43% | 1007.2 hPa | - | - | - | - |
| 1777966893 | 40.56° C | 45% | 1007.1 hPa | - | - | - | - |
| 1777965692 | 40.56° C | 46% | 1007.4 hPa | - | - | - | - |
| 1777964492 | 39.44° C | 48% | 1007.7 hPa | - | - | - | - |
| 1777962092 | 41.11° C | 47% | 1008.3 hPa | - | - | - | - |
| 1777959881 | 38.89° C | 55% | 1009.2 hPa | - | - | - | - |
| 1777955223 | 40° C | 48% | 1010.3 hPa | - | - | - | - |
| 1777954023 | 39.44° C | 51% | 1010.6 hPa | - | - | - | - |
| 1777942021 | 34.44° C | 69% | 1011.1 hPa | - | - | - | - |
| 1777939621 | 30° C | 94% | 1010.6 hPa | - | - | - | - |
| 1777933620 | 27.22° C | 100% | 1010.2 hPa | - | - | - | - |
| 1777932420 | 27.22° C | 100% | 1009.7 hPa | - | - | - | - |
| 1777931220 | 27.22° C | 100% | 1009.6 hPa | - | - | - | - |
| 1777930020 | 27.78° C | 100% | 1009.7 hPa | - | - | - | - |
| 1777928819 | 27.78° C | 100% | 1009.7 hPa | - | - | - | - |
| 1777925218 | 28.33° C | 100% | 1009.6 hPa | - | - | - | - |
| 1777922818 | 27.78° C | 100% | 1009.8 hPa | - | - | - | - |
| 1777921618 | 27.78° C | 100% | 1010 hPa | - | - | - | - |
| 1777920418 | 28.33° C | 100% | 1010.1 hPa | - | - | - | - |
| 1777919220 | 28.89° C | 100% | 1010.3 hPa | - | - | - | - |
| 1777918020 | 28.89° C | 98% | 1010.7 hPa | - | - | - | - |
* Rain since midnight (hover to see other rain measurements)
** Current wind speed in m/s (hover to see current wind gust speed)